sensor_id;sensor_type;location;lat;lon;timestamp;P1;durP1;ratioP1;P2;durP2;ratioP2
23444;SDS011;11895;48.738;9.320;2023-04-06T00:02:00;17.35;;;9.93;;
23444;SDS011;11895;48.738;9.320;2023-04-06T00:04:28;17.05;;;10.25;;
23444;SDS011;11895;48.738;9.320;2023-04-06T00:06:56;20.05;;;10.57;;
23444;SDS011;11895;48.738;9.320;2023-04-06T00:09:24;15.95;;;9.57;;
23444;SDS011;11895;48.738;9.320;2023-04-06T00:11:52;15.27;;;9.52;;
23444;SDS011;11895;48.738;9.320;2023-04-06T00:14:19;21.17;;;9.73;;
23444;SDS011;11895;48.738;9.320;2023-04-06T00:16:47;19.83;;;10.07;;
23444;SDS011;11895;48.738;9.320;2023-04-06T00:19:15;15.80;;;9.75;;
23444;SDS011;11895;48.738;9.320;2023-04-06T00:21:43;16.75;;;9.70;;
23444;SDS011;11895;48.738;9.320;2023-04-06T00:24:11;14.57;;;9.05;;
23444;SDS011;11895;48.738;9.320;2023-04-06T00:26:38;12.38;;;8.55;;
23444;SDS011;11895;48.738;9.320;2023-04-06T00:29:06;16.15;;;8.80;;
23444;SDS011;11895;48.738;9.320;2023-04-06T00:31:34;13.18;;;9.00;;
23444;SDS011;11895;48.738;9.320;2023-04-06T00:34:02;15.95;;;8.70;;
23444;SDS011;11895;48.738;9.320;2023-04-06T00:36:30;12.75;;;8.77;;
23444;SDS011;11895;48.738;9.320;2023-04-06T00:38:58;14.75;;;9.27;;
23444;SDS011;11895;48.738;9.320;2023-04-06T00:41:25;15.82;;;8.77;;
23444;SDS011;11895;48.738;9.320;2023-04-06T00:43:53;17.40;;;9.18;;
23444;SDS011;11895;48.738;9.320;2023-04-06T00:46:21;17.60;;;10.55;;
23444;SDS011;11895;48.738;9.320;2023-04-06T00:48:49;16.92;;;9.90;;
23444;SDS011;11895;48.738;9.320;2023-04-06T00:51:17;16.33;;;9.48;;
23444;SDS011;11895;48.738;9.320;2023-04-06T00:53:44;16.15;;;9.48;;
23444;SDS011;11895;48.738;9.320;2023-04-06T00:56:13;16.02;;;9.20;;
23444;SDS011;11895;48.738;9.320;2023-04-06T00:58:49;14.68;;;8.90;;
23444;SDS011;11895;48.738;9.320;2023-04-06T01:01:17;17.05;;;9.73;;
23444;SDS011;11895;48.738;9.320;2023-04-06T01:03:52;16.77;;;10.38;;
23444;SDS011;11895;48.738;9.320;2023-04-06T01:06:20;15.80;;;9.85;;
23444;SDS011;11895;48.738;9.320;2023-04-06T01:08:56;16.30;;;8.90;;
23444;SDS011;11895;48.738;9.320;2023-04-06T01:11:26;16.52;;;8.70;;
23444;SDS011;11895;48.738;9.320;2023-04-06T01:13:54;14.60;;;9.13;;
23444;SDS011;11895;48.738;9.320;2023-04-06T01:16:26;16.35;;;9.98;;
23444;SDS011;11895;48.738;9.320;2023-04-06T01:19:07;18.73;;;10.20;;
23444;SDS011;11895;48.738;9.320;2023-04-06T01:21:46;17.92;;;10.20;;
23444;SDS011;11895;48.738;9.320;2023-04-06T01:24:19;16.23;;;9.75;;
23444;SDS011;11895;48.738;9.320;2023-04-06T01:27:16;19.25;;;9.63;;
23444;SDS011;11895;48.738;9.320;2023-04-06T01:30:07;13.20;;;8.23;;
23444;SDS011;11895;48.738;9.320;2023-04-06T01:33:01;14.50;;;9.35;;
23444;SDS011;11895;48.738;9.320;2023-04-06T01:35:39;15.20;;;9.35;;
23444;SDS011;11895;48.738;9.320;2023-04-06T01:38:12;13.05;;;9.40;;
23444;SDS011;11895;48.738;9.320;2023-04-06T01:40:39;17.58;;;9.57;;
23444;SDS011;11895;48.738;9.320;2023-04-06T01:43:13;17.25;;;9.80;;
23444;SDS011;11895;48.738;9.320;2023-04-06T01:45:57;18.13;;;9.95;;
23444;SDS011;11895;48.738;9.320;2023-04-06T01:48:32;21.70;;;10.45;;
23444;SDS011;11895;48.738;9.320;2023-04-06T01:51:06;19.95;;;9.63;;
23444;SDS011;11895;48.738;9.320;2023-04-06T01:53:43;18.63;;;10.57;;
23444;SDS011;11895;48.738;9.320;2023-04-06T01:56:11;20.60;;;11.63;;
23444;SDS011;11895;48.738;9.320;2023-04-06T01:58:45;17.52;;;9.63;;
23444;SDS011;11895;48.738;9.320;2023-04-06T02:01:15;19.33;;;10.90;;
23444;SDS011;11895;48.738;9.320;2023-04-06T02:03:52;19.92;;;10.80;;
23444;SDS011;11895;48.738;9.320;2023-04-06T02:06:20;17.40;;;10.23;;
23444;SDS011;11895;48.738;9.320;2023-04-06T02:08:48;18.67;;;10.75;;
23444;SDS011;11895;48.738;9.320;2023-04-06T02:11:16;20.35;;;10.80;;
23444;SDS011;11895;48.738;9.320;2023-04-06T02:13:50;17.52;;;9.73;;
23444;SDS011;11895;48.738;9.320;2023-04-06T02:16:17;17.25;;;10.38;;
23444;SDS011;11895;48.738;9.320;2023-04-06T02:18:45;18.50;;;9.88;;
23444;SDS011;11895;48.738;9.320;2023-04-06T02:21:13;16.40;;;9.75;;
23444;SDS011;11895;48.738;9.320;2023-04-06T02:23:46;16.27;;;10.27;;
23444;SDS011;11895;48.738;9.320;2023-04-06T02:26:16;15.48;;;10.10;;
23444;SDS011;11895;48.738;9.320;2023-04-06T02:28:44;21.08;;;11.57;;
23444;SDS011;11895;48.738;9.320;2023-04-06T02:31:12;18.43;;;10.43;;
23444;SDS011;11895;48.738;9.320;2023-04-06T02:33:43;20.42;;;10.13;;
23444;SDS011;11895;48.738;9.320;2023-04-06T02:36:13;16.75;;;10.38;;
23444;SDS011;11895;48.738;9.320;2023-04-06T02:38:41;18.42;;;10.70;;
23444;SDS011;11895;48.738;9.320;2023-04-06T02:41:09;16.90;;;10.10;;
23444;SDS011;11895;48.738;9.320;2023-04-06T02:43:38;19.08;;;10.77;;
23444;SDS011;11895;48.738;9.320;2023-04-06T02:46:14;16.13;;;10.27;;
23444;SDS011;11895;48.738;9.320;2023-04-06T02:48:42;17.27;;;10.65;;
23444;SDS011;11895;48.738;9.320;2023-04-06T02:51:09;24.02;;;10.60;;
23444;SDS011;11895;48.738;9.320;2023-04-06T02:53:39;21.77;;;10.15;;
23444;SDS011;11895;48.738;9.320;2023-04-06T02:56:06;24.88;;;10.35;;
23444;SDS011;11895;48.738;9.320;2023-04-06T02:58:42;16.30;;;9.63;;
23444;SDS011;11895;48.738;9.320;2023-04-06T03:01:10;19.48;;;9.95;;
23444;SDS011;11895;48.738;9.320;2023-04-06T03:03:40;18.42;;;10.45;;
23444;SDS011;11895;48.738;9.320;2023-04-06T03:06:17;17.67;;;9.90;;
23444;SDS011;11895;48.738;9.320;2023-04-06T03:08:46;17.60;;;11.27;;
23444;SDS011;11895;48.738;9.320;2023-04-06T03:11:14;18.90;;;10.10;;
23444;SDS011;11895;48.738;9.320;2023-04-06T03:13:42;20.27;;;11.35;;
23444;SDS011;11895;48.738;9.320;2023-04-06T03:16:11;22.95;;;11.40;;
23444;SDS011;11895;48.738;9.320;2023-04-06T03:18:39;22.42;;;10.63;;
23444;SDS011;11895;48.738;9.320;2023-04-06T03:21:09;18.52;;;10.48;;
23444;SDS011;11895;48.738;9.320;2023-04-06T03:23:47;18.83;;;10.60;;
23444;SDS011;11895;48.738;9.320;2023-04-06T03:26:17;16.52;;;9.65;;
23444;SDS011;11895;48.738;9.320;2023-04-06T03:28:46;19.83;;;11.48;;
23444;SDS011;11895;48.738;9.320;2023-04-06T03:31:14;19.85;;;10.85;;
23444;SDS011;11895;48.738;9.320;2023-04-06T03:33:54;19.95;;;11.82;;
23444;SDS011;11895;48.738;9.320;2023-04-06T03:36:26;19.00;;;10.52;;
23444;SDS011;11895;48.738;9.320;2023-04-06T03:38:56;22.00;;;10.57;;
23444;SDS011;11895;48.738;9.320;2023-04-06T03:41:24;18.23;;;10.75;;
23444;SDS011;11895;48.738;9.320;2023-04-06T03:44:13;17.80;;;11.25;;
23444;SDS011;11895;48.738;9.320;2023-04-06T03:46:43;18.45;;;10.93;;
23444;SDS011;11895;48.738;9.320;2023-04-06T03:49:11;21.90;;;11.57;;
23444;SDS011;11895;48.738;9.320;2023-04-06T03:51:42;20.92;;;11.45;;
23444;SDS011;11895;48.738;9.320;2023-04-06T03:54:10;27.27;;;12.18;;
23444;SDS011;11895;48.738;9.320;2023-04-06T03:56:37;20.58;;;11.13;;
23444;SDS011;11895;48.738;9.320;2023-04-06T03:59:05;22.33;;;11.55;;
23444;SDS011;11895;48.738;9.320;2023-04-06T04:01:33;18.40;;;10.68;;
23444;SDS011;11895;48.738;9.320;2023-04-06T04:04:01;18.27;;;11.88;;
23444;SDS011;11895;48.738;9.320;2023-04-06T04:06:30;21.40;;;11.55;;
23444;SDS011;11895;48.738;9.320;2023-04-06T04:08:58;17.10;;;10.85;;
23444;SDS011;11895;48.738;9.320;2023-04-06T04:11:26;17.13;;;10.65;;
23444;SDS011;11895;48.738;9.320;2023-04-06T04:13:57;17.83;;;10.60;;
23444;SDS011;11895;48.738;9.320;2023-04-06T04:16:24;22.25;;;11.48;;
23444;SDS011;11895;48.738;9.320;2023-04-06T04:18:52;21.90;;;11.50;;
23444;SDS011;11895;48.738;9.320;2023-04-06T04:21:20;17.70;;;10.95;;
23444;SDS011;11895;48.738;9.320;2023-04-06T04:23:47;16.48;;;10.65;;
23444;SDS011;11895;48.738;9.320;2023-04-06T04:26:16;18.83;;;10.47;;
23444;SDS011;11895;48.738;9.320;2023-04-06T04:31:13;22.88;;;9.90;;
23444;SDS011;11895;48.738;9.320;2023-04-06T04:33:47;19.00;;;11.27;;
23444;SDS011;11895;48.738;9.320;2023-04-06T04:36:22;19.55;;;10.57;;
23444;SDS011;11895;48.738;9.320;2023-04-06T04:38:53;17.92;;;10.30;;
23444;SDS011;11895;48.738;9.320;2023-04-06T04:41:22;22.20;;;11.57;;
23444;SDS011;11895;48.738;9.320;2023-04-06T04:43:50;20.30;;;10.93;;
23444;SDS011;11895;48.738;9.320;2023-04-06T04:46:21;21.65;;;11.23;;
23444;SDS011;11895;48.738;9.320;2023-04-06T04:48:51;16.50;;;10.95;;
23444;SDS011;11895;48.738;9.320;2023-04-06T04:51:18;20.55;;;11.60;;
23444;SDS011;11895;48.738;9.320;2023-04-06T04:54:21;21.05;;;11.43;;
23444;SDS011;11895;48.738;9.320;2023-04-06T04:56:50;25.88;;;12.35;;
23444;SDS011;11895;48.738;9.320;2023-04-06T04:59:24;26.50;;;12.60;;
23444;SDS011;11895;48.738;9.320;2023-04-06T05:01:58;21.55;;;11.88;;
23444;SDS011;11895;48.738;9.320;2023-04-06T05:04:39;25.80;;;12.00;;
23444;SDS011;11895;48.738;9.320;2023-04-06T05:07:10;22.77;;;13.07;;
23444;SDS011;11895;48.738;9.320;2023-04-06T05:12:08;29.60;;;12.75;;
23444;SDS011;11895;48.738;9.320;2023-04-06T05:14:46;20.43;;;12.10;;
23444;SDS011;11895;48.738;9.320;2023-04-06T05:17:16;20.10;;;11.70;;
23444;SDS011;11895;48.738;9.320;2023-04-06T05:19:44;22.52;;;12.70;;
23444;SDS011;11895;48.738;9.320;2023-04-06T05:22:16;23.27;;;12.77;;
23444;SDS011;11895;48.738;9.320;2023-04-06T05:24:49;27.00;;;12.10;;
23444;SDS011;11895;48.738;9.320;2023-04-06T05:27:16;23.70;;;12.35;;
23444;SDS011;11895;48.738;9.320;2023-04-06T05:29:45;26.17;;;12.07;;
23444;SDS011;11895;48.738;9.320;2023-04-06T05:32:19;29.15;;;12.65;;
23444;SDS011;11895;48.738;9.320;2023-04-06T05:34:49;21.75;;;12.00;;
23444;SDS011;11895;48.738;9.320;2023-04-06T05:37:17;23.98;;;11.68;;
23444;SDS011;11895;48.738;9.320;2023-04-06T05:39:45;25.45;;;12.38;;
23444;SDS011;11895;48.738;9.320;2023-04-06T05:42:13;28.30;;;13.68;;
23444;SDS011;11895;48.738;9.320;2023-04-06T05:44:55;23.77;;;12.55;;
23444;SDS011;11895;48.738;9.320;2023-04-06T05:47:23;23.70;;;12.75;;
23444;SDS011;11895;48.738;9.320;2023-04-06T05:49:59;28.63;;;12.38;;
23444;SDS011;11895;48.738;9.320;2023-04-06T05:52:32;21.50;;;12.35;;
23444;SDS011;11895;48.738;9.320;2023-04-06T05:55:00;22.38;;;13.13;;
23444;SDS011;11895;48.738;9.320;2023-04-06T05:57:30;28.48;;;12.98;;
23444;SDS011;11895;48.738;9.320;2023-04-06T05:59:58;24.85;;;13.23;;
23444;SDS011;11895;48.738;9.320;2023-04-06T06:02:37;28.15;;;13.50;;
23444;SDS011;11895;48.738;9.320;2023-04-06T06:05:10;24.53;;;13.13;;
23444;SDS011;11895;48.738;9.320;2023-04-06T06:07:40;26.90;;;13.75;;
23444;SDS011;11895;48.738;9.320;2023-04-06T06:10:09;31.50;;;14.23;;
23444;SDS011;11895;48.738;9.320;2023-04-06T06:12:37;28.25;;;13.70;;
23444;SDS011;11895;48.738;9.320;2023-04-06T06:15:06;20.38;;;12.93;;
23444;SDS011;11895;48.738;9.320;2023-04-06T06:17:38;23.95;;;13.65;;
23444;SDS011;11895;48.738;9.320;2023-04-06T06:20:06;27.08;;;12.90;;
23444;SDS011;11895;48.738;9.320;2023-04-06T06:22:35;25.63;;;12.55;;
23444;SDS011;11895;48.738;9.320;2023-04-06T06:25:04;24.67;;;12.95;;
23444;SDS011;11895;48.738;9.320;2023-04-06T06:27:32;25.65;;;11.85;;
23444;SDS011;11895;48.738;9.320;2023-04-06T06:32:31;23.20;;;12.50;;
23444;SDS011;11895;48.738;9.320;2023-04-06T06:34:59;16.50;;;11.70;;
23444;SDS011;11895;48.738;9.320;2023-04-06T06:37:27;21.50;;;12.07;;
23444;SDS011;11895;48.738;9.320;2023-04-06T06:42:24;21.67;;;11.95;;
23444;SDS011;11895;48.738;9.320;2023-04-06T06:45:06;26.13;;;12.27;;
23444;SDS011;11895;48.738;9.320;2023-04-06T06:47:34;20.25;;;11.65;;
23444;SDS011;11895;48.738;9.320;2023-04-06T06:50:02;25.80;;;11.75;;
23444;SDS011;11895;48.738;9.320;2023-04-06T06:52:31;29.27;;;12.98;;
23444;SDS011;11895;48.738;9.320;2023-04-06T06:54:59;25.15;;;12.07;;
23444;SDS011;11895;48.738;9.320;2023-04-06T06:57:27;25.20;;;12.80;;
23444;SDS011;11895;48.738;9.320;2023-04-06T06:59:55;23.98;;;12.63;;
23444;SDS011;11895;48.738;9.320;2023-04-06T07:02:23;21.35;;;12.73;;
23444;SDS011;11895;48.738;9.320;2023-04-06T07:04:51;27.00;;;12.50;;
23444;SDS011;11895;48.738;9.320;2023-04-06T07:07:19;31.10;;;12.25;;
23444;SDS011;11895;48.738;9.320;2023-04-06T07:09:47;18.60;;;11.80;;
23444;SDS011;11895;48.738;9.320;2023-04-06T07:12:14;20.20;;;12.60;;
23444;SDS011;11895;48.738;9.320;2023-04-06T07:14:42;20.48;;;12.30;;
23444;SDS011;11895;48.738;9.320;2023-04-06T07:17:11;22.70;;;13.02;;
23444;SDS011;11895;48.738;9.320;2023-04-06T07:19:39;20.95;;;12.07;;
23444;SDS011;11895;48.738;9.320;2023-04-06T07:22:07;19.77;;;11.38;;
23444;SDS011;11895;48.738;9.320;2023-04-06T07:24:35;17.58;;;11.50;;
23444;SDS011;11895;48.738;9.320;2023-04-06T07:27:03;19.00;;;12.38;;
23444;SDS011;11895;48.738;9.320;2023-04-06T07:29:31;21.65;;;11.98;;
23444;SDS011;11895;48.738;9.320;2023-04-06T07:31:59;18.38;;;11.90;;
23444;SDS011;11895;48.738;9.320;2023-04-06T07:34:27;21.33;;;11.80;;
23444;SDS011;11895;48.738;9.320;2023-04-06T07:36:55;23.10;;;11.73;;
23444;SDS011;11895;48.738;9.320;2023-04-06T07:39:23;23.23;;;12.13;;
23444;SDS011;11895;48.738;9.320;2023-04-06T07:41:54;20.75;;;12.13;;
23444;SDS011;11895;48.738;9.320;2023-04-06T07:44:22;18.00;;;11.32;;
23444;SDS011;11895;48.738;9.320;2023-04-06T07:46:50;18.48;;;12.15;;
23444;SDS011;11895;48.738;9.320;2023-04-06T07:49:20;18.67;;;11.80;;
23444;SDS011;11895;48.738;9.320;2023-04-06T07:51:49;21.65;;;11.57;;
23444;SDS011;11895;48.738;9.320;2023-04-06T07:54:17;25.55;;;11.77;;
23444;SDS011;11895;48.738;9.320;2023-04-06T07:56:45;25.17;;;11.77;;
23444;SDS011;11895;48.738;9.320;2023-04-06T07:59:13;21.38;;;11.98;;
23444;SDS011;11895;48.738;9.320;2023-04-06T08:01:41;19.35;;;11.13;;
23444;SDS011;11895;48.738;9.320;2023-04-06T08:04:08;22.52;;;11.80;;
23444;SDS011;11895;48.738;9.320;2023-04-06T08:06:37;26.27;;;11.90;;
23444;SDS011;11895;48.738;9.320;2023-04-06T08:09:04;15.63;;;10.77;;
23444;SDS011;11895;48.738;9.320;2023-04-06T08:11:32;16.85;;;11.23;;
23444;SDS011;11895;48.738;9.320;2023-04-06T08:14:00;19.33;;;10.82;;
23444;SDS011;11895;48.738;9.320;2023-04-06T08:16:28;20.52;;;11.05;;
23444;SDS011;11895;48.738;9.320;2023-04-06T08:18:56;20.05;;;11.25;;
23444;SDS011;11895;48.738;9.320;2023-04-06T08:21:23;23.00;;;10.90;;
23444;SDS011;11895;48.738;9.320;2023-04-06T08:23:51;20.75;;;11.88;;
23444;SDS011;11895;48.738;9.320;2023-04-06T08:26:19;15.68;;;11.05;;
23444;SDS011;11895;48.738;9.320;2023-04-06T08:28:47;21.98;;;11.57;;
23444;SDS011;11895;48.738;9.320;2023-04-06T08:31:15;17.58;;;10.95;;
23444;SDS011;11895;48.738;9.320;2023-04-06T08:33:43;23.42;;;10.95;;
23444;SDS011;11895;48.738;9.320;2023-04-06T08:36:11;18.55;;;11.13;;
23444;SDS011;11895;48.738;9.320;2023-04-06T08:38:41;19.13;;;11.43;;
23444;SDS011;11895;48.738;9.320;2023-04-06T08:41:09;21.73;;;11.13;;
23444;SDS011;11895;48.738;9.320;2023-04-06T08:43:43;17.13;;;11.18;;
23444;SDS011;11895;48.738;9.320;2023-04-06T08:46:29;19.05;;;10.98;;
23444;SDS011;11895;48.738;9.320;2023-04-06T08:48:59;15.98;;;10.48;;
23444;SDS011;11895;48.738;9.320;2023-04-06T08:51:29;19.27;;;11.23;;
23444;SDS011;11895;48.738;9.320;2023-04-06T08:53:58;17.03;;;10.83;;
23444;SDS011;11895;48.738;9.320;2023-04-06T08:56:27;15.98;;;10.40;;
23444;SDS011;11895;48.738;9.320;2023-04-06T08:58:56;23.13;;;11.32;;
23444;SDS011;11895;48.738;9.320;2023-04-06T09:01:25;18.00;;;10.60;;
23444;SDS011;11895;48.738;9.320;2023-04-06T09:03:58;19.42;;;10.75;;
23444;SDS011;11895;48.738;9.320;2023-04-06T09:06:28;14.98;;;10.75;;
23444;SDS011;11895;48.738;9.320;2023-04-06T09:08:57;16.35;;;10.38;;
23444;SDS011;11895;48.738;9.320;2023-04-06T09:11:25;17.27;;;10.93;;
23444;SDS011;11895;48.738;9.320;2023-04-06T09:13:54;21.50;;;10.93;;
23444;SDS011;11895;48.738;9.320;2023-04-06T09:16:22;20.98;;;10.98;;
23444;SDS011;11895;48.738;9.320;2023-04-06T09:18:51;17.83;;;10.82;;
23444;SDS011;11895;48.738;9.320;2023-04-06T09:21:19;17.58;;;10.88;;
23444;SDS011;11895;48.738;9.320;2023-04-06T09:24:00;19.05;;;10.82;;
23444;SDS011;11895;48.738;9.320;2023-04-06T09:26:30;21.00;;;11.43;;
23444;SDS011;11895;48.738;9.320;2023-04-06T09:29:00;23.95;;;11.55;;
23444;SDS011;11895;48.738;9.320;2023-04-06T09:31:30;22.75;;;10.63;;
23444;SDS011;11895;48.738;9.320;2023-04-06T09:34:01;16.92;;;10.30;;
23444;SDS011;11895;48.738;9.320;2023-04-06T09:36:30;24.25;;;10.80;;
23444;SDS011;11895;48.738;9.320;2023-04-06T09:41:36;17.80;;;10.15;;
23444;SDS011;11895;48.738;9.320;2023-04-06T09:44:13;15.43;;;10.60;;
23444;SDS011;11895;48.738;9.320;2023-04-06T09:46:42;15.73;;;10.38;;
23444;SDS011;11895;48.738;9.320;2023-04-06T09:49:30;18.27;;;10.35;;
23444;SDS011;11895;48.738;9.320;2023-04-06T09:51:59;16.17;;;10.43;;
23444;SDS011;11895;48.738;9.320;2023-04-06T09:54:33;18.00;;;10.95;;
23444;SDS011;11895;48.738;9.320;2023-04-06T09:57:07;16.40;;;10.85;;
23444;SDS011;11895;48.738;9.320;2023-04-06T10:00:14;20.98;;;10.95;;
23444;SDS011;11895;48.738;9.320;2023-04-06T10:05:55;16.05;;;9.88;;
23444;SDS011;11895;48.738;9.320;2023-04-06T10:08:27;11.27;;;6.82;;
23444;SDS011;11895;48.738;9.320;2023-04-06T10:10:58;9.75;;;5.57;;
23444;SDS011;11895;48.738;9.320;2023-04-06T10:13:27;8.88;;;6.30;;
23444;SDS011;11895;48.738;9.320;2023-04-06T10:15:55;12.15;;;7.57;;
23444;SDS011;11895;48.738;9.320;2023-04-06T10:18:24;13.73;;;7.55;;
23444;SDS011;11895;48.738;9.320;2023-04-06T10:20:56;12.43;;;6.90;;
23444;SDS011;11895;48.738;9.320;2023-04-06T10:23:33;10.50;;;6.50;;
23444;SDS011;11895;48.738;9.320;2023-04-06T10:26:03;19.10;;;12.80;;
23444;SDS011;11895;48.738;9.320;2023-04-06T10:28:32;14.98;;;9.65;;
23444;SDS011;11895;48.738;9.320;2023-04-06T10:31:04;14.48;;;7.57;;
23444;SDS011;11895;48.738;9.320;2023-04-06T10:33:33;15.32;;;7.93;;
23444;SDS011;11895;48.738;9.320;2023-04-06T10:36:35;18.83;;;7.55;;
23444;SDS011;11895;48.738;9.320;2023-04-06T10:39:00;15.77;;;8.07;;
23444;SDS011;11895;48.738;9.320;2023-04-06T10:41:43;16.80;;;8.93;;
23444;SDS011;11895;48.738;9.320;2023-04-06T10:44:19;12.50;;;7.65;;
23444;SDS011;11895;48.738;9.320;2023-04-06T10:46:52;11.23;;;7.32;;
23444;SDS011;11895;48.738;9.320;2023-04-06T10:49:27;12.00;;;7.25;;
23444;SDS011;11895;48.738;9.320;2023-04-06T10:51:55;12.40;;;7.88;;
23444;SDS011;11895;48.738;9.320;2023-04-06T10:54:24;13.63;;;7.03;;
23444;SDS011;11895;48.738;9.320;2023-04-06T10:56:53;14.27;;;6.82;;
23444;SDS011;11895;48.738;9.320;2023-04-06T10:59:23;9.35;;;6.35;;
23444;SDS011;11895;48.738;9.320;2023-04-06T11:01:51;11.45;;;7.07;;
23444;SDS011;11895;48.738;9.320;2023-04-06T11:04:21;8.65;;;6.57;;
23444;SDS011;11895;48.738;9.320;2023-04-06T11:06:50;10.30;;;6.55;;
23444;SDS011;11895;48.738;9.320;2023-04-06T11:09:28;10.80;;;6.47;;
23444;SDS011;11895;48.738;9.320;2023-04-06T11:11:58;11.02;;;7.07;;
23444;SDS011;11895;48.738;9.320;2023-04-06T11:14:27;11.80;;;6.72;;
23444;SDS011;11895;48.738;9.320;2023-04-06T11:16:55;10.77;;;6.95;;
23444;SDS011;11895;48.738;9.320;2023-04-06T11:19:23;10.77;;;7.32;;
23444;SDS011;11895;48.738;9.320;2023-04-06T11:21:51;12.25;;;8.40;;
23444;SDS011;11895;48.738;9.320;2023-04-06T11:24:20;11.07;;;6.63;;
23444;SDS011;11895;48.738;9.320;2023-04-06T11:26:50;15.77;;;7.25;;
23444;SDS011;11895;48.738;9.320;2023-04-06T11:29:25;9.93;;;7.00;;
23444;SDS011;11895;48.738;9.320;2023-04-06T11:34:32;14.75;;;6.93;;
23444;SDS011;11895;48.738;9.320;2023-04-06T11:37:10;11.13;;;7.32;;
23444;SDS011;11895;48.738;9.320;2023-04-06T11:39:48;9.65;;;6.20;;
23444;SDS011;11895;48.738;9.320;2023-04-06T11:42:22;9.05;;;6.68;;
23444;SDS011;11895;48.738;9.320;2023-04-06T11:44:56;11.57;;;7.38;;
23444;SDS011;11895;48.738;9.320;2023-04-06T11:50:07;7.50;;;5.22;;
23444;SDS011;11895;48.738;9.320;2023-04-06T11:52:40;8.57;;;6.10;;
23444;SDS011;11895;48.738;9.320;2023-04-06T11:55:16;10.82;;;5.75;;
23444;SDS011;11895;48.738;9.320;2023-04-06T11:57:47;9.30;;;6.25;;
23444;SDS011;11895;48.738;9.320;2023-04-06T12:00:16;11.23;;;5.57;;
23444;SDS011;11895;48.738;9.320;2023-04-06T12:02:45;10.93;;;6.35;;
23444;SDS011;11895;48.738;9.320;2023-04-06T12:05:15;13.05;;;7.72;;
23444;SDS011;11895;48.738;9.320;2023-04-06T12:07:43;10.63;;;6.00;;
23444;SDS011;11895;48.738;9.320;2023-04-06T12:10:12;9.38;;;5.18;;
23444;SDS011;11895;48.738;9.320;2023-04-06T12:12:40;9.55;;;5.45;;
23444;SDS011;11895;48.738;9.320;2023-04-06T12:15:09;10.57;;;5.35;;
23444;SDS011;11895;48.738;9.320;2023-04-06T12:17:37;10.02;;;5.13;;
23444;SDS011;11895;48.738;9.320;2023-04-06T12:20:04;9.55;;;5.03;;
23444;SDS011;11895;48.738;9.320;2023-04-06T12:22:50;11.48;;;5.35;;
23444;SDS011;11895;48.738;9.320;2023-04-06T12:25:18;15.23;;;5.97;;
23444;SDS011;11895;48.738;9.320;2023-04-06T12:27:46;7.90;;;5.85;;
23444;SDS011;11895;48.738;9.320;2023-04-06T12:30:14;9.43;;;5.77;;
23444;SDS011;11895;48.738;9.320;2023-04-06T12:32:42;8.82;;;5.07;;
23444;SDS011;11895;48.738;9.320;2023-04-06T12:35:10;7.32;;;5.05;;
23444;SDS011;11895;48.738;9.320;2023-04-06T12:37:39;11.57;;;5.88;;
23444;SDS011;11895;48.738;9.320;2023-04-06T12:40:07;5.90;;;2.75;;
23444;SDS011;11895;48.738;9.320;2023-04-06T12:42:38;7.63;;;5.20;;
23444;SDS011;11895;48.738;9.320;2023-04-06T12:45:08;7.00;;;5.05;;
23444;SDS011;11895;48.738;9.320;2023-04-06T12:47:36;8.07;;;4.65;;
23444;SDS011;11895;48.738;9.320;2023-04-06T12:50:05;6.65;;;5.05;;
23444;SDS011;11895;48.738;9.320;2023-04-06T12:52:33;11.20;;;4.88;;
23444;SDS011;11895;48.738;9.320;2023-04-06T12:55:02;9.38;;;5.00;;
23444;SDS011;11895;48.738;9.320;2023-04-06T12:57:32;7.75;;;4.32;;
23444;SDS011;11895;48.738;9.320;2023-04-06T13:00:00;10.02;;;4.05;;
23444;SDS011;11895;48.738;9.320;2023-04-06T13:02:29;6.60;;;4.10;;
23444;SDS011;11895;48.738;9.320;2023-04-06T13:04:57;5.30;;;4.10;;
23444;SDS011;11895;48.738;9.320;2023-04-06T13:07:31;8.88;;;3.72;;
23444;SDS011;11895;48.738;9.320;2023-04-06T13:09:59;7.10;;;3.97;;
23444;SDS011;11895;48.738;9.320;2023-04-06T13:12:27;7.45;;;4.28;;
23444;SDS011;11895;48.738;9.320;2023-04-06T13:14:56;6.07;;;4.38;;
23444;SDS011;11895;48.738;9.320;2023-04-06T13:17:23;6.20;;;4.07;;
23444;SDS011;11895;48.738;9.320;2023-04-06T13:19:53;7.00;;;4.20;;
23444;SDS011;11895;48.738;9.320;2023-04-06T13:22:22;5.82;;;3.80;;
23444;SDS011;11895;48.738;9.320;2023-04-06T13:24:49;6.20;;;3.92;;
23444;SDS011;11895;48.738;9.320;2023-04-06T13:27:17;8.45;;;3.88;;
23444;SDS011;11895;48.738;9.320;2023-04-06T13:29:45;7.70;;;3.92;;
23444;SDS011;11895;48.738;9.320;2023-04-06T13:32:13;4.50;;;3.80;;
23444;SDS011;11895;48.738;9.320;2023-04-06T13:34:41;5.18;;;4.20;;
23444;SDS011;11895;48.738;9.320;2023-04-06T13:37:12;6.68;;;4.10;;
23444;SDS011;11895;48.738;9.320;2023-04-06T13:39:40;6.50;;;3.78;;
23444;SDS011;11895;48.738;9.320;2023-04-06T13:42:07;5.82;;;4.05;;
23444;SDS011;11895;48.738;9.320;2023-04-06T13:47:04;6.68;;;4.28;;
23444;SDS011;11895;48.738;9.320;2023-04-06T13:49:32;8.30;;;4.40;;
23444;SDS011;11895;48.738;9.320;2023-04-06T13:52:00;8.27;;;4.63;;
23444;SDS011;11895;48.738;9.320;2023-04-06T13:54:27;6.75;;;4.65;;
23444;SDS011;11895;48.738;9.320;2023-04-06T13:56:56;5.78;;;4.30;;
23444;SDS011;11895;48.738;9.320;2023-04-06T13:59:24;7.78;;;4.72;;
23444;SDS011;11895;48.738;9.320;2023-04-06T14:01:58;8.10;;;4.90;;
23444;SDS011;11895;48.738;9.320;2023-04-06T14:04:27;7.35;;;5.18;;
23444;SDS011;11895;48.738;9.320;2023-04-06T14:06:56;11.27;;;4.90;;
23444;SDS011;11895;48.738;9.320;2023-04-06T14:09:25;7.43;;;4.80;;
23444;SDS011;11895;48.738;9.320;2023-04-06T14:11:53;6.55;;;4.68;;
23444;SDS011;11895;48.738;9.320;2023-04-06T14:14:22;7.65;;;5.15;;
23444;SDS011;11895;48.738;9.320;2023-04-06T14:16:50;10.75;;;5.07;;
23444;SDS011;11895;48.738;9.320;2023-04-06T14:19:18;6.10;;;4.80;;
23444;SDS011;11895;48.738;9.320;2023-04-06T14:21:47;10.35;;;4.90;;
23444;SDS011;11895;48.738;9.320;2023-04-06T14:24:17;8.82;;;5.20;;
23444;SDS011;11895;48.738;9.320;2023-04-06T14:26:47;6.55;;;4.93;;
23444;SDS011;11895;48.738;9.320;2023-04-06T14:29:14;6.00;;;4.78;;
23444;SDS011;11895;48.738;9.320;2023-04-06T14:31:42;7.20;;;5.00;;
23444;SDS011;11895;48.738;9.320;2023-04-06T14:34:14;8.15;;;4.95;;
23444;SDS011;11895;48.738;9.320;2023-04-06T14:36:43;6.82;;;4.63;;
23444;SDS011;11895;48.738;9.320;2023-04-06T14:39:11;7.70;;;5.28;;
23444;SDS011;11895;48.738;9.320;2023-04-06T14:41:38;9.88;;;4.97;;
23444;SDS011;11895;48.738;9.320;2023-04-06T14:44:07;9.02;;;5.25;;
23444;SDS011;11895;48.738;9.320;2023-04-06T14:46:38;8.73;;;5.20;;
23444;SDS011;11895;48.738;9.320;2023-04-06T14:49:06;8.70;;;5.18;;
23444;SDS011;11895;48.738;9.320;2023-04-06T14:51:34;19.15;;;10.80;;
23444;SDS011;11895;48.738;9.320;2023-04-06T14:54:02;10.02;;;5.38;;
23444;SDS011;11895;48.738;9.320;2023-04-06T14:56:30;7.97;;;5.45;;
23444;SDS011;11895;48.738;9.320;2023-04-06T14:58:58;5.85;;;4.63;;
23444;SDS011;11895;48.738;9.320;2023-04-06T15:01:28;12.18;;;5.18;;
23444;SDS011;11895;48.738;9.320;2023-04-06T15:03:56;7.43;;;4.97;;
23444;SDS011;11895;48.738;9.320;2023-04-06T15:06:25;8.07;;;4.93;;
23444;SDS011;11895;48.738;9.320;2023-04-06T15:08:53;6.63;;;4.25;;
23444;SDS011;11895;48.738;9.320;2023-04-06T15:11:21;9.45;;;4.78;;
23444;SDS011;11895;48.738;9.320;2023-04-06T15:13:48;6.38;;;4.93;;